Lynge, Denmark
Current Conditions -  °F | °C
As of 12:20 AM on Sunday 26 Oct 2014 (Local Time) from EKRK Reporting Station
Moderate Fog Moderate Fog  
Wind Chill: 46°   Ceiling: Unl
Heat Index: 48°   Visibility: 0.12mi
Dew Point: 48°   Wind: 5mph
Humidity: 100%   Direction: 200°SSW
Pressure: 30.09"   Gusts: NA
Location:  55.84°N, 12.28°E
Report Text: EKRK 252220Z AUTO 20004KT 0200NDV R11/1100VP1500U R29/0800VP1500UFG NCD 09/09 Q1019
Loading
Personal Weather Stations






























Interactive Weather Map
Tropical Storm Tracking
New forecast layout! Learn more

10-Day Weather Forecast

Advertisements
Track Severe Weather on mobile